sensor_id;sensor_type;location;lat;lon;timestamp;pressure;altitude;pressure_sealevel;temperature;humidity
66887;BME280;67239;51.680;5.976;2024-03-23T00:52:48;100886.38;;;6.03;100.00
66887;BME280;67239;51.680;5.976;2024-03-23T00:55:14;100884.63;;;6.00;100.00
66887;BME280;67239;51.680;5.976;2024-03-23T00:57:40;100878.53;;;6.01;100.00
66887;BME280;67239;51.680;5.976;2024-03-23T01:00:07;100874.16;;;6.00;100.00
66887;BME280;67239;51.680;5.976;2024-03-23T01:02:36;100879.41;;;6.02;100.00
66887;BME280;67239;51.680;5.976;2024-03-23T01:05:03;100886.38;;;6.01;100.00
66887;BME280;67239;51.680;5.976;2024-03-23T01:07:29;100883.75;;;6.03;100.00
66887;BME280;67239;51.680;5.976;2024-03-23T01:09:55;100892.47;;;6.03;100.00
66887;BME280;67239;51.680;5.976;2024-03-23T01:12:21;100887.22;;;6.03;100.00
66887;BME280;67239;51.680;5.976;2024-03-23T01:14:48;100888.97;;;6.04;100.00
66887;BME280;67239;51.680;5.976;2024-03-23T01:17:14;100878.50;;;6.04;100.00
66887;BME280;67239;51.680;5.976;2024-03-23T01:19:40;100881.09;;;6.06;100.00
66887;BME280;67239;51.680;5.976;2024-03-23T01:22:07;100881.97;;;6.06;100.00
66887;BME280;67239;51.680;5.976;2024-03-23T01:24:35;100882.84;;;6.05;100.00
66887;BME280;67239;51.680;5.976;2024-03-23T01:27:02;100887.19;;;6.08;100.00
66887;BME280;67239;51.680;5.976;2024-03-23T01:29:29;100885.44;;;6.09;100.00
66887;BME280;67239;51.680;5.976;2024-03-23T01:31:55;100879.28;;;6.13;100.00
66887;BME280;67239;51.680;5.976;2024-03-23T01:34:22;100876.66;;;6.14;100.00
66887;BME280;67239;51.680;5.976;2024-03-23T01:36:48;100865.31;;;6.15;100.00
66887;BME280;67239;51.680;5.976;2024-03-23T01:39:14;100863.53;;;6.16;100.00
66887;BME280;67239;51.680;5.976;2024-03-23T01:41:40;100876.59;;;6.17;100.00
66887;BME280;67239;51.680;5.976;2024-03-23T01:44:09;100872.22;;;6.19;100.00
66887;BME280;67239;51.680;5.976;2024-03-23T01:46:36;100856.53;;;6.19;100.00
66887;BME280;67239;51.680;5.976;2024-03-23T01:49:05;100854.78;;;6.18;100.00
66887;BME280;67239;51.680;5.976;2024-03-23T01:51:32;100858.28;;;6.19;100.00
66887;BME280;67239;51.680;5.976;2024-03-23T01:54:00;100855.66;;;6.19;100.00
66887;BME280;67239;51.680;5.976;2024-03-23T01:56:32;100853.88;;;6.21;100.00
66887;BME280;67239;51.680;5.976;2024-03-23T01:59:06;100850.41;;;6.20;100.00
66887;BME280;67239;51.680;5.976;2024-03-23T02:01:36;100852.16;;;6.20;100.00
66887;BME280;67239;51.680;5.976;2024-03-23T02:04:03;100858.25;;;6.20;100.00
66887;BME280;67239;51.680;5.976;2024-03-23T02:06:29;100845.13;;;6.22;100.00
66887;BME280;67239;51.680;5.976;2024-03-23T02:08:55;100823.31;;;6.23;100.00
66887;BME280;67239;51.680;5.976;2024-03-23T02:11:22;100832.94;;;6.21;100.00
66887;BME280;67239;51.680;5.976;2024-03-23T02:13:48;100829.47;;;6.20;100.00
66887;BME280;67239;51.680;5.976;2024-03-23T02:16:14;100825.09;;;6.19;100.00
66887;BME280;67239;51.680;5.976;2024-03-23T02:18:41;100832.09;;;6.19;100.00
66887;BME280;67239;51.680;5.976;2024-03-23T02:21:07;100842.53;;;6.22;100.00
66887;BME280;67239;51.680;5.976;2024-03-23T02:23:33;100845.13;;;6.22;100.00
66887;BME280;67239;51.680;5.976;2024-03-23T02:25:59;100830.31;;;6.21;100.00
66887;BME280;67239;51.680;5.976;2024-03-23T02:28:25;100845.13;;;6.22;100.00
66887;BME280;67239;51.680;5.976;2024-03-23T02:30:52;100848.63;;;6.21;100.00
66887;BME280;67239;51.680;5.976;2024-03-23T02:33:18;100851.25;;;6.22;100.00
66887;BME280;67239;51.680;5.976;2024-03-23T02:35:45;100845.13;;;6.24;100.00
66887;BME280;67239;51.680;5.976;2024-03-23T02:38:11;100839.88;;;6.25;100.00
66887;BME280;67239;51.680;5.976;2024-03-23T02:40:38;100833.78;;;6.23;100.00
66887;BME280;67239;51.680;5.976;2024-03-23T02:43:04;100832.03;;;6.24;100.00
66887;BME280;67239;51.680;5.976;2024-03-23T02:45:30;100819.00;;;6.20;100.00
66887;BME280;67239;51.680;5.976;2024-03-23T02:47:57;100824.25;;;6.19;100.00
66887;BME280;67239;51.680;5.976;2024-03-23T02:50:23;100828.59;;;6.18;100.00
66887;BME280;67239;51.680;5.976;2024-03-23T02:52:49;100824.25;;;6.19;100.00
66887;BME280;67239;51.680;5.976;2024-03-23T02:55:16;100830.38;;;6.18;100.00
66887;BME280;67239;51.680;5.976;2024-03-23T02:57:42;100834.72;;;6.17;100.00
66887;BME280;67239;51.680;5.976;2024-03-23T03:00:08;100824.28;;;6.16;100.00
66887;BME280;67239;51.680;5.976;2024-03-23T03:02:36;100834.75;;;6.16;100.00
66887;BME280;67239;51.680;5.976;2024-03-23T03:05:04;100824.31;;;6.14;100.00
66887;BME280;67239;51.680;5.976;2024-03-23T03:07:32;100824.31;;;6.13;100.00
66887;BME280;67239;51.680;5.976;2024-03-23T03:09:58;100818.25;;;6.09;100.00
66887;BME280;67239;51.680;5.976;2024-03-23T03:12:24;100815.63;;;6.09;100.00
66887;BME280;67239;51.680;5.976;2024-03-23T03:14:50;100819.16;;;6.06;100.00
66887;BME280;67239;51.680;5.976;2024-03-23T03:17:17;100821.78;;;6.06;100.00
66887;BME280;67239;51.680;5.976;2024-03-23T03:19:43;100819.19;;;6.05;100.00
66887;BME280;67239;51.680;5.976;2024-03-23T03:22:09;100817.41;;;6.05;100.00
66887;BME280;67239;51.680;5.976;2024-03-23T03:24:35;100822.69;;;6.04;100.00
66887;BME280;67239;51.680;5.976;2024-03-23T03:27:01;100813.97;;;6.02;100.00
66887;BME280;67239;51.680;5.976;2024-03-23T03:29:29;100819.22;;;6.02;100.00
66887;BME280;67239;51.680;5.976;2024-03-23T03:32:02;100820.06;;;6.02;100.00
66887;BME280;67239;51.680;5.976;2024-03-23T03:34:29;100821.84;;;6.02;100.00
66887;BME280;67239;51.680;5.976;2024-03-23T03:36:56;100813.09;;;6.01;100.00
66887;BME280;67239;51.680;5.976;2024-03-23T03:39:23;100814.84;;;6.02;100.00
66887;BME280;67239;51.680;5.976;2024-03-23T03:41:50;100813.09;;;6.01;100.00
66887;BME280;67239;51.680;5.976;2024-03-23T03:44:16;100808.75;;;6.00;100.00
66887;BME280;67239;51.680;5.976;2024-03-23T03:46:43;100800.88;;;5.99;100.00
66887;BME280;67239;51.680;5.976;2024-03-23T03:49:09;100806.13;;;6.00;100.00
66887;BME280;67239;51.680;5.976;2024-03-23T03:51:36;100802.66;;;5.98;100.00
66887;BME280;67239;51.680;5.976;2024-03-23T03:54:02;100793.06;;;5.97;100.00
66887;BME280;67239;51.680;5.976;2024-03-23T03:56:28;100800.91;;;5.97;100.00
66887;BME280;67239;51.680;5.976;2024-03-23T03:58:54;100801.81;;;5.95;100.00
66887;BME280;67239;51.680;5.976;2024-03-23T04:01:21;100796.59;;;5.93;100.00
66887;BME280;67239;51.680;5.976;2024-03-23T04:03:47;100800.13;;;5.90;100.00
66887;BME280;67239;51.680;5.976;2024-03-23T04:06:19;100796.59;;;5.93;100.00
66887;BME280;67239;51.680;5.976;2024-03-23T04:08:45;100799.25;;;5.91;100.00
66887;BME280;67239;51.680;5.976;2024-03-23T04:11:11;100793.97;;;5.93;100.00
66887;BME280;67239;51.680;5.976;2024-03-23T04:13:38;100786.16;;;5.91;100.00
66887;BME280;67239;51.680;5.976;2024-03-23T04:16:04;100794.03;;;5.88;100.00
66887;BME280;67239;51.680;5.976;2024-03-23T04:18:30;100795.78;;;5.88;100.00
66887;BME280;67239;51.680;5.976;2024-03-23T04:20:57;100797.53;;;5.87;100.00
66887;BME280;67239;51.680;5.976;2024-03-23T04:23:23;100800.16;;;5.89;100.00
66887;BME280;67239;51.680;5.976;2024-03-23T04:25:49;100801.00;;;5.89;100.00
66887;BME280;67239;51.680;5.976;2024-03-23T04:28:16;100798.41;;;5.86;100.00
66887;BME280;67239;51.680;5.976;2024-03-23T04:30:42;100794.13;;;5.82;100.00
66887;BME280;67239;51.680;5.976;2024-03-23T04:33:08;100795.94;;;5.75;100.00
66887;BME280;67239;51.680;5.976;2024-03-23T04:35:34;100789.03;;;5.68;100.00
66887;BME280;67239;51.680;5.976;2024-03-23T04:38:01;100788.22;;;5.62;100.00
66887;BME280;67239;51.680;5.976;2024-03-23T04:40:27;100795.25;;;5.56;100.00
66887;BME280;67239;51.680;5.976;2024-03-23T04:42:53;100796.16;;;5.54;100.00
66887;BME280;67239;51.680;5.976;2024-03-23T04:45:19;100790.94;;;5.51;100.00
66887;BME280;67239;51.680;5.976;2024-03-23T04:47:46;100793.56;;;5.51;100.00
66887;BME280;67239;51.680;5.976;2024-03-23T04:50:13;100792.72;;;5.49;100.00
66887;BME280;67239;51.680;5.976;2024-03-23T04:52:39;100799.72;;;5.45;100.00
66887;BME280;67239;51.680;5.976;2024-03-23T04:55:05;100799.81;;;5.36;100.00
66887;BME280;67239;51.680;5.976;2024-03-23T04:57:31;100799.91;;;5.28;100.00
66887;BME280;67239;51.680;5.976;2024-03-23T04:59:58;100789.50;;;5.20;100.00
66887;BME280;67239;51.680;5.976;2024-03-23T05:02:24;100791.28;;;5.15;100.00
66887;BME280;67239;51.680;5.976;2024-03-23T05:04:51;100789.59;;;5.11;100.00
66887;BME280;67239;51.680;5.976;2024-03-23T05:07:17;100795.72;;;5.05;100.00
66887;BME280;67239;51.680;5.976;2024-03-23T05:09:43;100790.56;;;4.97;100.00
66887;BME280;67239;51.680;5.976;2024-03-23T05:12:09;100792.31;;;4.95;100.00
66887;BME280;67239;51.680;5.976;2024-03-23T05:14:36;100788.88;;;4.93;100.00
66887;BME280;67239;51.680;5.976;2024-03-23T05:17:02;100787.97;;;4.93;100.00
66887;BME280;67239;51.680;5.976;2024-03-23T05:19:29;100788.84;;;4.92;100.00
66887;BME280;67239;51.680;5.976;2024-03-23T05:21:55;100799.31;;;4.92;100.00
66887;BME280;67239;51.680;5.976;2024-03-23T05:24:21;100795.84;;;4.91;100.00
66887;BME280;67239;51.680;5.976;2024-03-23T05:26:47;100795.00;;;4.88;100.00
66887;BME280;67239;51.680;5.976;2024-03-23T05:29:13;100798.50;;;4.87;100.00
66887;BME280;67239;51.680;5.976;2024-03-23T05:31:39;100794.16;;;4.82;100.00
66887;BME280;67239;51.680;5.976;2024-03-23T05:34:08;100803.75;;;4.79;100.00
66887;BME280;67239;51.680;5.976;2024-03-23T05:36:35;100792.47;;;4.75;100.00
66887;BME280;67239;51.680;5.976;2024-03-23T05:39:03;100793.38;;;4.73;100.00
66887;BME280;67239;51.680;5.976;2024-03-23T05:41:29;100799.47;;;4.72;100.00
66887;BME280;67239;51.680;5.976;2024-03-23T05:43:56;100796.84;;;4.70;100.00
66887;BME280;67239;51.680;5.976;2024-03-23T05:46:22;100793.38;;;4.68;100.00
66887;BME280;67239;51.680;5.976;2024-03-23T05:48:48;100796.88;;;4.69;100.00
66887;BME280;67239;51.680;5.976;2024-03-23T05:51:14;100791.63;;;4.69;100.00
66887;BME280;67239;51.680;5.976;2024-03-23T05:53:42;100797.72;;;4.69;100.00
66887;BME280;67239;51.680;5.976;2024-03-23T05:56:08;100800.34;;;4.71;100.00
66887;BME280;67239;51.680;5.976;2024-03-23T05:58:34;100791.63;;;4.72;100.00
66887;BME280;67239;51.680;5.976;2024-03-23T06:01:02;100786.38;;;4.73;100.00
66887;BME280;67239;51.680;5.976;2024-03-23T06:03:29;100793.34;;;4.74;100.00
66887;BME280;67239;51.680;5.976;2024-03-23T06:05:55;100793.31;;;4.79;100.00
66887;BME280;67239;51.680;5.976;2024-03-23T06:08:22;100796.72;;;4.87;100.00
66887;BME280;67239;51.680;5.976;2024-03-23T06:10:49;100802.75;;;4.97;100.00
66887;BME280;67239;51.680;5.976;2024-03-23T06:13:16;100793.09;;;5.07;100.00
66887;BME280;67239;51.680;5.976;2024-03-23T06:15:47;100800.81;;;5.21;100.00
66887;BME280;67239;51.680;5.976;2024-03-23T06:18:23;100803.28;;;5.35;100.00
66887;BME280;67239;51.680;5.976;2024-03-23T06:20:49;100804.13;;;5.43;100.00
66887;BME280;67239;51.680;5.976;2024-03-23T06:23:15;100800.56;;;5.49;100.00
66887;BME280;67239;51.680;5.976;2024-03-23T06:25:43;100800.53;;;5.53;100.00
66887;BME280;67239;51.680;5.976;2024-03-23T06:28:09;100800.53;;;5.53;100.00
66887;BME280;67239;51.680;5.976;2024-03-23T06:30:36;100806.66;;;5.49;100.00
66887;BME280;67239;51.680;5.976;2024-03-23T06:33:03;100808.44;;;5.46;100.00
66887;BME280;67239;51.680;5.976;2024-03-23T06:35:29;100810.19;;;5.43;100.00
66887;BME280;67239;51.680;5.976;2024-03-23T06:37:55;100806.75;;;5.40;100.00
66887;BME280;67239;51.680;5.976;2024-03-23T06:40:21;100808.47;;;5.42;100.00
66887;BME280;67239;51.680;5.976;2024-03-23T06:42:48;100804.09;;;5.44;100.00
66887;BME280;67239;51.680;5.976;2024-03-23T06:45:14;100807.53;;;5.48;100.00
66887;BME280;67239;51.680;5.976;2024-03-23T06:47:40;100806.59;;;5.57;100.00
66887;BME280;67239;51.680;5.976;2024-03-23T06:50:07;100807.28;;;5.74;100.00
66887;BME280;67239;51.680;5.976;2024-03-23T06:52:33;100800.91;;;5.97;100.00
66887;BME280;67239;51.680;5.976;2024-03-23T06:55:00;100797.19;;;6.20;100.00
66887;BME280;67239;51.680;5.976;2024-03-23T06:57:27;100808.25;;;6.39;100.00
66887;BME280;67239;51.680;5.976;2024-03-23T06:59:53;100797.59;;;6.55;100.00
66887;BME280;67239;51.680;5.976;2024-03-23T07:02:19;100810.47;;;6.70;100.00
66887;BME280;67239;51.680;5.976;2024-03-23T07:04:45;100811.13;;;6.83;100.00
66887;BME280;67239;51.680;5.976;2024-03-23T07:07:11;100807.41;;;6.99;100.00
66887;BME280;67239;51.680;5.976;2024-03-23T07:09:38;100802.69;;;7.19;100.00
66887;BME280;67239;51.680;5.976;2024-03-23T07:12:04;100807.56;;;7.42;100.00
66887;BME280;67239;51.680;5.976;2024-03-23T07:14:31;100810.00;;;7.53;100.00
66887;BME280;67239;51.680;5.976;2024-03-23T07:16:57;100810.88;;;7.52;100.00
66887;BME280;67239;51.680;5.976;2024-03-23T07:19:23;100814.38;;;7.52;100.00
66887;BME280;67239;51.680;5.976;2024-03-23T07:21:50;100807.38;;;7.53;100.00
66887;BME280;67239;51.680;5.976;2024-03-23T07:24:16;100801.28;;;7.51;100.00
66887;BME280;67239;51.680;5.976;2024-03-23T07:26:42;100810.88;;;7.52;100.00
66887;BME280;67239;51.680;5.976;2024-03-23T07:29:09;100802.00;;;7.59;100.00
66887;BME280;67239;51.680;5.976;2024-03-23T07:31:35;100809.50;;;7.79;100.00
66887;BME280;67239;51.680;5.976;2024-03-23T07:34:02;100813.34;;;8.06;100.00
66887;BME280;67239;51.680;5.976;2024-03-23T07:36:28;100815.91;;;8.09;100.00
66887;BME280;67239;51.680;5.976;2024-03-23T07:38:54;100811.06;;;7.89;100.00
66887;BME280;67239;51.680;5.976;2024-03-23T07:41:20;100811.38;;;7.72;100.00
66887;BME280;67239;51.680;5.976;2024-03-23T07:43:47;100819.56;;;7.55;100.00
66887;BME280;67239;51.680;5.976;2024-03-23T07:46:15;100813.63;;;7.45;100.00
66887;BME280;67239;51.680;5.976;2024-03-23T07:48:42;100814.66;;;7.37;100.00
66887;BME280;67239;51.680;5.976;2024-03-23T07:51:10;100813.88;;;7.32;100.00
66887;BME280;67239;51.680;5.976;2024-03-23T07:53:44;100815.56;;;7.33;100.00
66887;BME280;67239;51.680;5.976;2024-03-23T07:56:12;100800.63;;;7.38;100.00
66887;BME280;67239;51.680;5.976;2024-03-23T07:58:38;100812.66;;;7.50;100.00
66887;BME280;67239;51.680;5.976;2024-03-23T08:01:06;100815.03;;;7.65;100.00
66887;BME280;67239;51.680;5.976;2024-03-23T08:03:37;100808.66;;;7.77;100.00
66887;BME280;67239;51.680;5.976;2024-03-23T08:06:12;100808.56;;;7.82;100.00
66887;BME280;67239;51.680;5.976;2024-03-23T08:08:42;100816.50;;;7.80;100.00
66887;BME280;67239;51.680;5.976;2024-03-23T08:11:10;100815.59;;;7.81;100.00
66887;BME280;67239;51.680;5.976;2024-03-23T08:13:40;100826.09;;;7.81;100.00
66887;BME280;67239;51.680;5.976;2024-03-23T08:16:08;100826.09;;;7.80;100.00
66887;BME280;67239;51.680;5.976;2024-03-23T08:18:39;100819.13;;;7.80;100.00
66887;BME280;67239;51.680;5.976;2024-03-23T08:21:06;100826.94;;;7.82;100.00
66887;BME280;67239;51.680;5.976;2024-03-23T08:23:34;100815.50;;;7.86;100.00
66887;BME280;67239;51.680;5.976;2024-03-23T08:26:08;100827.56;;;7.95;100.00
66887;BME280;67239;51.680;5.976;2024-03-23T08:28:37;100827.47;;;8.01;100.00
66887;BME280;67239;51.680;5.976;2024-03-23T08:31:07;100815.09;;;8.07;100.00
66887;BME280;67239;51.680;5.976;2024-03-23T08:33:35;100817.38;;;8.23;100.00
66887;BME280;67239;51.680;5.976;2024-03-23T08:36:03;100816.94;;;8.45;100.00
66887;BME280;67239;51.680;5.976;2024-03-23T08:38:31;100821.28;;;8.46;100.00
66887;BME280;67239;51.680;5.976;2024-03-23T08:43:29;100816.66;;;8.59;100.00
66887;BME280;67239;51.680;5.976;2024-03-23T08:46:15;100822.63;;;8.65;97.75
66887;BME280;67239;51.680;5.976;2024-03-23T08:48:43;100825.38;;;8.61;98.57
66887;BME280;67239;51.680;5.976;2024-03-23T08:51:13;100826.22;;;8.63;97.49
66887;BME280;67239;51.680;5.976;2024-03-23T08:53:40;100824.50;;;8.60;95.95
66887;BME280;67239;51.680;5.976;2024-03-23T08:56:08;100808.81;;;8.57;96.35
66887;BME280;67239;51.680;5.976;2024-03-23T08:58:35;100818.66;;;8.46;94.09
66887;BME280;67239;51.680;5.976;2024-03-23T09:03:32;100820.56;;;8.39;95.69
66887;BME280;67239;51.680;5.976;2024-03-23T09:05:58;100816.34;;;8.30;99.47
66887;BME280;67239;51.680;5.976;2024-03-23T09:08:25;100815.50;;;8.30;99.58
66887;BME280;67239;51.680;5.976;2024-03-23T09:10:52;100809.88;;;8.48;100.00
66887;BME280;67239;51.680;5.976;2024-03-23T09:13:19;100798.09;;;8.65;100.00
66887;BME280;67239;51.680;5.976;2024-03-23T09:15:49;100807.56;;;8.74;100.00
66887;BME280;67239;51.680;5.976;2024-03-23T09:18:17;100800.41;;;8.80;98.42
66887;BME280;67239;51.680;5.976;2024-03-23T09:20:43;100805.50;;;8.86;97.70
66887;BME280;67239;51.680;5.976;2024-03-23T09:23:09;100815.69;;;9.00;98.00
66887;BME280;67239;51.680;5.976;2024-03-23T09:25:39;100808.16;;;9.21;96.48
66887;BME280;67239;51.680;5.976;2024-03-23T09:28:07;100801.88;;;9.28;94.71
66887;BME280;67239;51.680;5.976;2024-03-23T09:30:36;100801.69;;;9.35;92.72
66887;BME280;67239;51.680;5.976;2024-03-23T09:33:08;100807.41;;;9.51;90.43
66887;BME280;67239;51.680;5.976;2024-03-23T09:35:39;100795.69;;;9.62;86.63
66887;BME280;67239;51.680;5.976;2024-03-23T09:38:07;100811.78;;;9.52;82.64
66887;BME280;67239;51.680;5.976;2024-03-23T09:40:40;100797.69;;;9.20;79.76
66887;BME280;67239;51.680;5.976;2024-03-23T09:43:08;100799.06;;;9.00;82.49
66887;BME280;67239;51.680;5.976;2024-03-23T09:45:39;100794.13;;;8.86;84.51
66887;BME280;67239;51.680;5.976;2024-03-23T09:48:09;100791.88;;;8.69;86.39
66887;BME280;67239;51.680;5.976;2024-03-23T09:50:40;100795.00;;;8.47;86.73
66887;BME280;67239;51.680;5.976;2024-03-23T09:53:09;100796.28;;;8.28;90.62
66887;BME280;67239;51.680;5.976;2024-03-23T09:55:41;100806.22;;;8.12;89.52
66887;BME280;67239;51.680;5.976;2024-03-23T09:58:12;100804.03;;;7.91;90.05
66887;BME280;67239;51.680;5.976;2024-03-23T10:00:39;100794.66;;;7.78;91.55
66887;BME280;67239;51.680;5.976;2024-03-23T10:03:05;100798.25;;;7.72;92.93
66887;BME280;67239;51.680;5.976;2024-03-23T10:05:33;100794.50;;;7.86;93.86
66887;BME280;67239;51.680;5.976;2024-03-23T10:08:02;100800.22;;;8.05;95.45
66887;BME280;67239;51.680;5.976;2024-03-23T10:10:45;100798.69;;;8.37;96.66
66887;BME280;67239;51.680;5.976;2024-03-23T10:13:25;100789.09;;;8.77;96.56
66887;BME280;67239;51.680;5.976;2024-03-23T10:15:57;100789.44;;;8.99;98.51
66887;BME280;67239;51.680;5.976;2024-03-23T10:18:25;100790.44;;;9.29;99.50
66887;BME280;67239;51.680;5.976;2024-03-23T10:23:33;100776.16;;;10.03;99.35
66887;BME280;67239;51.680;5.976;2024-03-23T10:26:20;100776.94;;;10.36;97.41
66887;BME280;67239;51.680;5.976;2024-03-23T10:31:28;100760.66;;;11.07;94.63
66887;BME280;67239;51.680;5.976;2024-03-23T10:33:55;100766.69;;;11.11;94.63
66887;BME280;67239;51.680;5.976;2024-03-23T10:36:23;100776.31;;;10.85;88.49
66887;BME280;67239;51.680;5.976;2024-03-23T10:38:51;100776.13;;;10.34;81.88
66887;BME280;67239;51.680;5.976;2024-03-23T10:41:18;100786.34;;;9.84;83.72
66887;BME280;67239;51.680;5.976;2024-03-23T10:43:46;100779.88;;;9.64;87.44
66887;BME280;67239;51.680;5.976;2024-03-23T10:46:14;100775.72;;;9.55;88.41
66887;BME280;67239;51.680;5.976;2024-03-23T10:48:40;100770.53;;;9.52;88.14
66887;BME280;67239;51.680;5.976;2024-03-23T10:51:08;100773.97;;;9.56;88.60
66887;BME280;67239;51.680;5.976;2024-03-23T10:53:35;100767.16;;;9.47;91.37
66887;BME280;67239;51.680;5.976;2024-03-23T10:56:04;100777.13;;;9.36;86.88
66887;BME280;67239;51.680;5.976;2024-03-23T10:58:51;100770.53;;;9.19;83.97
66887;BME280;67239;51.680;5.976;2024-03-23T11:01:18;100759.50;;;9.05;83.57
66887;BME280;67239;51.680;5.976;2024-03-23T11:03:46;100775.50;;;8.95;79.01
66887;BME280;67239;51.680;5.976;2024-03-23T11:06:48;100773.88;;;8.90;79.57
66887;BME280;67239;51.680;5.976;2024-03-23T11:09:38;100764.81;;;9.01;79.51
66887;BME280;67239;51.680;5.976;2024-03-23T11:12:26;100769.41;;;9.29;80.61
66887;BME280;67239;51.680;5.976;2024-03-23T11:14:56;100769.81;;;9.47;77.27
66887;BME280;67239;51.680;5.976;2024-03-23T11:17:25;100762.16;;;9.71;78.55
66887;BME280;67239;51.680;5.976;2024-03-23T11:20:11;100758.66;;;10.00;77.15
66887;BME280;67239;51.680;5.976;2024-03-23T11:25:12;100755.34;;;10.23;75.08
66887;BME280;67239;51.680;5.976;2024-03-23T11:27:49;100743.34;;;10.45;79.20
66887;BME280;67239;51.680;5.976;2024-03-23T11:30:21;100755.84;;;10.65;80.75
66887;BME280;67239;51.680;5.976;2024-03-23T11:32:56;100757.06;;;10.83;79.35
66887;BME280;67239;51.680;5.976;2024-03-23T11:35:41;100752.94;;;11.01;77.00
66887;BME280;67239;51.680;5.976;2024-03-23T11:40:43;100767.31;;;11.44;75.48
66887;BME280;67239;51.680;5.976;2024-03-23T11:43:15;100747.84;;;11.72;74.68
66887;BME280;67239;51.680;5.976;2024-03-23T11:45:50;100752.88;;;12.04;70.68
66887;BME280;67239;51.680;5.976;2024-03-23T11:48:24;100757.69;;;12.16;71.25
66887;BME280;67239;51.680;5.976;2024-03-23T11:50:55;100765.91;;;11.83;71.48
66887;BME280;67239;51.680;5.976;2024-03-23T11:53:24;100774.53;;;11.39;74.07
66887;BME280;67239;51.680;5.976;2024-03-23T11:55:59;100770.75;;;10.94;75.38
66887;BME280;67239;51.680;5.976;2024-03-23T11:58:27;100777.72;;;10.68;75.80
66887;BME280;67239;51.680;5.976;2024-03-23T12:01:00;100767.72;;;10.51;76.02
66887;BME280;67239;51.680;5.976;2024-03-23T12:03:30;100771.59;;;10.39;77.91
66887;BME280;67239;51.680;5.976;2024-03-23T12:06:00;100768.28;;;10.31;77.62
66887;BME280;67239;51.680;5.976;2024-03-23T12:11:10;100773.78;;;9.93;75.63
66887;BME280;67239;51.680;5.976;2024-03-23T12:13:38;100778.13;;;9.94;73.90
66887;BME280;67239;51.680;5.976;2024-03-23T12:16:18;100773.91;;;10.20;73.37
66887;BME280;67239;51.680;5.976;2024-03-23T12:18:47;100783.84;;;10.40;72.45
66887;BME280;67239;51.680;5.976;2024-03-23T12:21:18;100778.97;;;10.26;61.25
66887;BME280;67239;51.680;5.976;2024-03-23T12:23:44;100763.22;;;9.95;62.05
66887;BME280;67239;51.680;5.976;2024-03-23T12:26:12;100752.72;;;9.62;64.48
66887;BME280;67239;51.680;5.976;2024-03-23T12:28:39;100768.06;;;9.46;66.80
66887;BME280;67239;51.680;5.976;2024-03-23T12:31:06;100756.66;;;9.47;68.00
66887;BME280;67239;51.680;5.976;2024-03-23T12:33:32;100757.16;;;9.27;70.89
66887;BME280;67239;51.680;5.976;2024-03-23T12:35:59;100737.63;;;9.02;70.63
66887;BME280;67239;51.680;5.976;2024-03-23T12:38:25;100750.50;;;8.77;74.20
66887;BME280;67239;51.680;5.976;2024-03-23T12:40:51;100742.84;;;8.69;76.94
66887;BME280;67239;51.680;5.976;2024-03-23T12:43:18;100744.84;;;8.94;78.65
66887;BME280;67239;51.680;5.976;2024-03-23T12:45:48;100737.13;;;9.21;79.80
66887;BME280;67239;51.680;5.976;2024-03-23T12:48:18;100740.09;;;9.43;78.48
66887;BME280;67239;51.680;5.976;2024-03-23T12:50:45;100736.06;;;9.61;80.63
66887;BME280;67239;51.680;5.976;2024-03-23T12:53:12;100731.41;;;9.71;81.51
66887;BME280;67239;51.680;5.976;2024-03-23T12:55:38;100720.16;;;9.66;79.29
66887;BME280;67239;51.680;5.976;2024-03-23T12:58:04;100723.84;;;9.60;80.26
66887;BME280;67239;51.680;5.976;2024-03-23T13:00:30;100730.97;;;9.55;80.77
66887;BME280;67239;51.680;5.976;2024-03-23T13:02:57;100731.72;;;9.60;76.40
66887;BME280;67239;51.680;5.976;2024-03-23T13:05:23;100740.41;;;9.62;77.49
66887;BME280;67239;51.680;5.976;2024-03-23T13:07:55;100754.72;;;9.54;78.51
66887;BME280;67239;51.680;5.976;2024-03-23T13:10:28;100752.91;;;9.21;78.85
66887;BME280;67239;51.680;5.976;2024-03-23T13:13:01;100743.03;;;8.96;80.51
66887;BME280;67239;51.680;5.976;2024-03-23T13:15:29;100743.22;;;8.89;81.49
66887;BME280;67239;51.680;5.976;2024-03-23T13:17:55;100737.13;;;8.88;82.62
66887;BME280;67239;51.680;5.976;2024-03-23T13:20:24;100744.41;;;9.11;83.20
66887;BME280;67239;51.680;5.976;2024-03-23T13:23:01;100742.19;;;9.30;84.20
66887;BME280;67239;51.680;5.976;2024-03-23T13:25:28;100736.69;;;9.40;83.62
66887;BME280;67239;51.680;5.976;2024-03-23T13:27:54;100741.72;;;9.47;84.56
66887;BME280;67239;51.680;5.976;2024-03-23T13:30:23;100732.38;;;9.67;86.34
66887;BME280;67239;51.680;5.976;2024-03-23T13:32:49;100738.13;;;9.82;85.98
66887;BME280;67239;51.680;5.976;2024-03-23T13:35:16;100744.78;;;10.25;85.34
66887;BME280;67239;51.680;5.976;2024-03-23T13:37:42;100754.13;;;10.64;82.03
66887;BME280;67239;51.680;5.976;2024-03-23T13:40:09;100739.09;;;10.67;79.90
66887;BME280;67239;51.680;5.976;2024-03-23T13:42:36;100741.25;;;10.54;81.40
66887;BME280;67239;51.680;5.976;2024-03-23T13:45:03;100743.72;;;10.31;80.38
66887;BME280;67239;51.680;5.976;2024-03-23T13:47:30;100740.06;;;10.06;79.16
66887;BME280;67239;51.680;5.976;2024-03-23T13:49:56;100749.16;;;9.96;79.74
66887;BME280;67239;51.680;5.976;2024-03-23T13:52:23;100745.50;;;10.00;79.42
66887;BME280;67239;51.680;5.976;2024-03-23T13:54:51;100743.34;;;10.15;78.13
66887;BME280;67239;51.680;5.976;2024-03-23T13:57:17;100740.72;;;10.43;77.77
66887;BME280;67239;51.680;5.976;2024-03-23T13:59:47;100734.75;;;10.66;75.65
66887;BME280;67239;51.680;5.976;2024-03-23T14:02:14;100738.66;;;10.81;77.67
66887;BME280;67239;51.680;5.976;2024-03-23T14:04:41;100732.00;;;10.96;77.83
66887;BME280;67239;51.680;5.976;2024-03-23T14:07:07;100724.28;;;10.90;76.58